Time,TemperatureF,DewpointF,PressureIn,WindDirection,WindDirectionDegrees,WindSpeedMPH,WindSpeedGustMPH,Humidity,HourlyPrecipIn,Conditions,Clouds,dailyrainin,SolarRadiationWatts/m^2,SoftwareType,DateUTC
2013-07-16 10:43:00,74.0,29.0,-100.00,SSE,165,11.0,20.0,19,-99.99,,,0.00,727.000000,,2013-07-16 17:43:00,
2013-07-16 10:53:00,74.0,29.0,-100.00,SSE,165,11.0,20.0,19,-99.99,,,0.00,727.000000,,2013-07-16 17:53:00,
2013-07-16 11:01:00,74.0,29.0,-100.00,SSE,165,11.0,20.0,19,-99.99,,,0.00,727.000000,,2013-07-16 18:01:00,
2013-07-16 11:43:00,76.0,18.0,-100.00,South,169,9.0,18.0,11,0.00,,,0.00,918.000000,,2013-07-16 18:43:00,
2013-07-16 12:01:00,76.0,18.0,-100.00,South,169,9.0,18.0,11,0.00,,,0.00,918.000000,,2013-07-16 19:01:00,
2013-07-16 12:02:00,77.0,18.0,-100.00,SSE,150,9.0,17.0,11,0.00,,,0.00,1060.000000,,2013-07-16 19:02:00,
2013-07-16 12:32:00,77.0,18.0,-100.00,SSE,150,9.0,17.0,11,0.00,,,0.00,1060.000000,,2013-07-16 19:32:00,
2013-07-16 12:43:00,77.0,18.0,-100.00,SSE,150,9.0,17.0,11,0.00,,,0.00,1060.000000,,2013-07-16 19:43:00,
2013-07-16 12:52:00,77.0,18.0,-100.00,SSE,150,9.0,17.0,11,0.00,,,0.00,1060.000000,,2013-07-16 19:52:00,
2013-07-16 15:33:00,79.0,24.0,-100.00,SE,137,8.0,19.0,13,0.00,,,0.00,1107.000000,,2013-07-16 22:33:00,
2013-07-16 15:43:00,79.0,24.0,-100.00,SE,137,8.0,19.0,13,0.00,,,0.00,1107.000000,,2013-07-16 22:43:00,
2013-07-16 15:52:00,79.0,24.0,-100.00,SE,137,8.0,19.0,13,0.00,,,0.00,1107.000000,,2013-07-16 22:52:00,
2013-07-16 16:01:00,79.0,24.0,-100.00,SE,137,8.0,19.0,13,0.00,,,0.00,1107.000000,,2013-07-16 23:01:00,
2013-07-16 16:32:00,78.0,23.0,-100.00,SE,143,10.0,20.0,13,0.00,,,0.00,985.000000,,2013-07-16 23:32:00,
2013-07-16 16:43:00,78.0,23.0,-100.00,SE,143,10.0,20.0,13,0.00,,,0.00,985.000000,,2013-07-16 23:43:00,
2013-07-16 16:52:00,78.0,23.0,-100.00,SE,143,10.0,20.0,13,0.00,,,0.00,985.000000,,2013-07-16 23:52:00,
2013-07-16 17:01:00,78.0,23.0,-100.00,SE,143,10.0,20.0,13,0.00,,,0.00,985.000000,,2013-07-17 00:01:00,
2013-07-16 17:33:00,77.0,29.0,-100.00,SE,129,11.0,19.0,17,0.00,,,0.00,810.000000,,2013-07-17 00:33:00,
2013-07-16 17:42:00,77.0,29.0,-100.00,SE,129,11.0,19.0,17,0.00,,,0.00,810.000000,,2013-07-17 00:42:00,
2013-07-16 17:52:00,77.0,29.0,-100.00,SE,129,11.0,19.0,17,0.00,,,0.00,810.000000,,2013-07-17 00:52:00,
2013-07-16 18:01:00,77.0,29.0,-100.00,SE,129,11.0,19.0,17,0.00,,,0.00,810.000000,,2013-07-17 01:01:00,
2013-07-16 18:32:00,76.0,37.0,-100.00,SE,137,9.0,19.0,24,0.00,,,0.00,586.000000,,2013-07-17 01:32:00,
2013-07-16 18:43:00,76.0,37.0,-100.00,SE,137,9.0,19.0,24,0.00,,,0.00,586.000000,,2013-07-17 01:43:00,
2013-07-16 18:53:00,76.0,37.0,-100.00,SE,137,9.0,19.0,24,0.00,,,0.00,586.000000,,2013-07-17 01:53:00,
2013-07-16 19:01:00,76.0,37.0,-100.00,SE,137,9.0,19.0,24,0.00,,,0.00,586.000000,,2013-07-17 02:01:00,
2013-07-16 19:32:00,73.0,38.0,-100.00,SSE,164,9.0,20.0,28,0.00,,,0.00,334.000000,,2013-07-17 02:32:00,
2013-07-16 19:43:00,73.0,38.0,-100.00,SSE,164,9.0,20.0,28,0.00,,,0.00,334.000000,,2013-07-17 02:43:00,
2013-07-16 19:53:00,73.0,38.0,-100.00,SSE,164,9.0,20.0,28,0.00,,,0.00,334.000000,,2013-07-17 02:53:00,
2013-07-16 20:01:00,73.0,38.0,-100.00,SSE,164,9.0,20.0,28,0.00,,,0.00,334.000000,,2013-07-17 03:01:00,
2013-07-16 20:32:00,68.0,31.0,-100.00,SSE,147,8.0,16.0,25,0.00,,,0.00,93.000000,,2013-07-17 03:32:00,
2013-07-16 20:43:00,68.0,31.0,-100.00,SSE,147,8.0,16.0,25,0.00,,,0.00,93.000000,,2013-07-17 03:43:00,
2013-07-16 20:53:00,68.0,31.0,-100.00,SSE,147,8.0,16.0,25,0.00,,,0.00,93.000000,,2013-07-17 03:53:00,
2013-07-16 21:01:00,68.0,31.0,-100.00,SSE,147,8.0,16.0,25,0.00,,,0.00,93.000000,,2013-07-17 04:01:00,
2013-07-16 21:22:00,67.0,21.0,-100.00,SE,138,5.0,15.0,17,0.00,,,-99.99,1.000000,,2013-07-17 04:22:00,
2013-07-16 21:32:00,67.0,21.0,-100.00,SE,138,5.0,15.0,17,0.00,,,-99.99,1.000000,,2013-07-17 04:32:00,
2013-07-16 21:43:00,67.0,21.0,-100.00,SE,138,5.0,15.0,17,0.00,,,-99.99,1.000000,,2013-07-17 04:43:00,
2013-07-16 21:53:00,67.0,21.0,-100.00,SE,138,5.0,15.0,17,0.00,,,-99.99,1.000000,,2013-07-17 04:53:00,
2013-07-16 22:01:00,67.0,21.0,-100.00,SE,138,5.0,15.0,17,0.00,,,-99.99,1.000000,,2013-07-17 05:01:00,
2013-07-16 22:32:00,66.0,14.0,-100.00,SE,135,8.0,15.0,13,0.00,,,-99.99,0.000000,,2013-07-17 05:32:00,
2013-07-16 22:43:00,66.0,14.0,-100.00,SE,135,8.0,15.0,13,0.00,,,-99.99,0.000000,,2013-07-17 05:43:00,
2013-07-16 22:52:00,66.0,14.0,-100.00,SE,135,8.0,15.0,13,0.00,,,-99.99,0.000000,,2013-07-17 05:52:00,
2013-07-16 23:33:00,65.0,15.0,-100.00,SSE,151,9.0,14.0,14,0.00,,,-99.99,0.000000,,2013-07-17 06:33:00,
2013-07-16 23:43:00,65.0,15.0,-100.00,SSE,151,9.0,14.0,14,0.00,,,-99.99,0.000000,,2013-07-17 06:43:00,
2013-07-16 23:52:00,65.0,15.0,-100.00,SSE,151,9.0,14.0,14,0.00,,,-99.99,0.000000,,2013-07-17 06:52:00,